DW3777 Harstad NO current weather conditions

sailwx.info

Wind from 220 at 8 knots gusting 14

Air temperature 9.4° C
Dewpoint 9.3° C

Last reported at 2019-Aug-25 22:00 UTC.
Time now 2019-Aug-25 22:53 UTC

Location: N 68°48' E 016°23'.
View on Google Maps.

See reports from other nearby stations

  
Tides and Currents Weather Stations Pressure Air Temp Water Temp Dewpoint Dewpoint Depression Visibility Wind Speed Wind Dir Waves Ship Positions
date/time (UTC)wind fromknots sea level pressurealtimeterstation pressurevisibilityair tempwater tempwave heightnotes
2019-Aug-25 22:00 220 8 gusting 14 9.4
2019-Aug-25 21:45 226 9 gusting 13 9.4
2019-Aug-25 21:32 201 6 gusting 9 9.4
2019-Aug-25 21:17 203 6 gusting 8 9.4
2019-Aug-25 21:01 198 6 gusting 9 9.4
2019-Aug-25 20:47 181 6 gusting 12 9.4
2019-Aug-25 20:31 178 8 gusting 12 9.4
2019-Aug-25 20:16 168 6 gusting 10 9.4
2019-Aug-25 20:01 167 5 gusting 10 9.4
2019-Aug-25 19:47 157 6 gusting 7 9.4
2019-Aug-25 19:32 155 6 gusting 10 9.4
2019-Aug-25 19:16 183 7 gusting 11 9.4
2019-Aug-25 19:01 207 8 gusting 13 9.4
2019-Aug-25 18:47 195 9 gusting 13 9.4
2019-Aug-25 18:31 188 9 gusting 15 9.4
2019-Aug-25 18:17 173 14 gusting 20 9.4
2019-Aug-25 18:01 185 17 gusting 25 10.0
2019-Aug-25 17:46 181 20 gusting 24 10.0
2019-Aug-25 17:31 169 14 gusting 21 9.4
2019-Aug-25 17:16 165 13 gusting 23 9.4
2019-Aug-25 17:01 164 9 gusting 18 10.0
2019-Aug-25 16:46 160 10 gusting 14 10.0
2019-Aug-25 16:31 184 13 gusting 19 10.0
2019-Aug-25 16:17 163 11 gusting 19 10.0
2019-Aug-25 16:02 161 14 gusting 19 10.0
2019-Aug-25 15:46 149 14 gusting 19 10.0
2019-Aug-25 15:31 162 12 gusting 17 10.0
2019-Aug-25 15:16 157 13 gusting 18 10.0
2019-Aug-25 15:01 174 12 gusting 17 10.0
2019-Aug-25 14:45 167 13 gusting 19 10.0
2019-Aug-25 14:31 144 14 gusting 23 10.0
2019-Aug-25 14:16 159 17 gusting 22 9.4
2019-Aug-25 14:01 152 18 gusting 21 9.4
2019-Aug-25 13:46 144 17 gusting 24 9.4
2019-Aug-25 13:31 139 18 gusting 24 9.4
2019-Aug-25 13:15 144 19 gusting 24 9.4
2019-Aug-25 13:00 143 17 gusting 23 9.4
2019-Aug-25 12:46 156 14 gusting 19 9.4
2019-Aug-25 12:30 146 15 gusting 20 9.4
2019-Aug-25 12:16 137 18 gusting 23 9.4
2019-Aug-25 12:00 162 17 gusting 25 10.0
2019-Aug-25 11:46 163 16 gusting 26 10.0
2019-Aug-25 11:30 150 15 gusting 19 9.4
2019-Aug-25 11:15 163 16 gusting 24 9.4
2019-Aug-25 11:00 168 20 gusting 28 9.4
2019-Aug-25 10:45 172 17 gusting 23 9.4
2019-Aug-25 10:30 174 19 gusting 22 9.4
2019-Aug-25 10:15 181 20 gusting 26 9.4
2019-Aug-25 10:00 166 19 gusting 24 9.4
2019-Aug-25 09:45 139 16 gusting 23 8.9
2019-Aug-25 09:30 134 19 gusting 22 8.9
2019-Aug-25 09:15 143 15 gusting 19 8.9
2019-Aug-25 09:00 148 17 gusting 22 8.3
2019-Aug-25 08:30 136 16 gusting 20 8.3
2019-Aug-25 08:15 134 16 gusting 19 8.3
2019-Aug-25 08:01 124 16 gusting 19 7.8
2019-Aug-25 07:46 142 19 gusting 24 7.8
2019-Aug-25 07:32 141 19 gusting 24 7.8
2019-Aug-25 07:17 139 20 gusting 24 7.8
2019-Aug-25 07:01 150 19 gusting 24 7.8
2019-Aug-25 06:47 134 22 gusting 27 8.3
2019-Aug-25 06:31 135 21 gusting 25 8.3
2019-Aug-25 06:17 139 20 gusting 25 8.9
2019-Aug-25 06:01 141 19 gusting 23 8.9
2019-Aug-25 05:48 128 16 gusting 25 8.9
2019-Aug-25 05:32 139 19 gusting 21 8.3
2019-Aug-25 05:16 129 15 gusting 19 8.3
2019-Aug-25 05:01 129 15 gusting 21 8.3
2019-Aug-25 04:46 133 16 gusting 19 8.3
2019-Aug-25 04:31 124 15 gusting 20 8.9
2019-Aug-25 04:17 120 16 gusting 19 9.4
2019-Aug-25 04:01 150 12 gusting 16 9.4
2019-Aug-25 03:46 139 11 gusting 16 9.4
2019-Aug-25 03:30 134 10 gusting 13 9.4
2019-Aug-25 03:16 140 13 gusting 15 9.4
2019-Aug-25 03:00 150 12 gusting 15 8.9
2019-Aug-25 02:45 147 12 gusting 15 8.9
2019-Aug-25 02:31 131 13 gusting 15 8.9
2019-Aug-25 02:15 135 12 gusting 15 8.9
2019-Aug-25 02:00 133 9 gusting 13 8.3
2019-Aug-25 01:45 138 10 gusting 15 8.9
2019-Aug-25 01:30 134 11 gusting 15 8.9
2019-Aug-25 01:15 125 10 gusting 15 8.3
2019-Aug-25 01:00 118 8 gusting 11 8.3
2019-Aug-25 00:45 129 8 gusting 10 8.3
2019-Aug-25 00:30 129 9 gusting 10 8.3
2019-Aug-25 00:15 137 10 gusting 13 8.9
2019-Aug-25 00:03 134 11 gusting 14 8.3
2019-Aug-24 23:47 140 13 gusting 14 8.3
2019-Aug-24 23:31 127 12 gusting 14 7.8
2019-Aug-24 23:17 137 13 gusting 14 7.8
2019-Aug-24 23:01 134 11 gusting 13 7.8
2019-Aug-24 22:46 132 10 gusting 12 6.7
2019-Aug-24 22:32 124 8 gusting 12 6.7
2019-Aug-24 22:16 114 10 gusting 13 6.7
2019-Aug-24 22:01 122 9 gusting 13 6.7
2019-Aug-24 21:45 120 11 gusting 13 6.1
2019-Aug-24 21:31 124 9 gusting 11 5.6
2019-Aug-24 21:15 103 7 gusting 9 5.6
2019-Aug-24 21:01 096 7 gusting 8 5.6
2019-Aug-24 20:47 096 7 gusting 9 5.6
2019-Aug-24 20:30 094 6 gusting 9 5.6
2019-Aug-24 20:16 098 6 gusting 8 5.0
2019-Aug-24 20:00 096 6 gusting 10 5.0
2019-Aug-24 19:46 104 6 gusting 8 5.0
2019-Aug-24 19:16 098 6 gusting 7 5.0
2019-Aug-24 19:01 105 6 gusting 8 4.4
2019-Aug-24 18:46 103 6 gusting 6 5.0
2019-Aug-24 18:30 084 5 gusting 8 5.0
2019-Aug-24 18:15 094 6 gusting 7 5.0
2019-Aug-24 18:01 094 5 gusting 6 4.4
2019-Aug-24 17:46 068 3 gusting 5 4.4
2019-Aug-24 17:31 068 3 gusting 5 5.0
2019-Aug-24 17:16 076 4 gusting 6 5.0
2019-Aug-24 17:00 074 3 gusting 5 5.0
2019-Aug-24 16:46 063 4 gusting 6 5.0
2019-Aug-24 16:30 065 5 gusting 6 5.0
2019-Aug-24 16:15 039 1 gusting 2 5.6
2019-Aug-24 16:00 039 0 gusting 5 5.6
2019-Aug-24 15:45 071 3 gusting 6 6.1
2019-Aug-24 15:30 030 0 gusting 4 5.6
2019-Aug-24 15:15 077 0 gusting 6 6.1
2019-Aug-24 15:00 111 5 gusting 8 6.1
2019-Aug-24 14:45 073 3 gusting 5 6.1
2019-Aug-24 14:30 340 0 gusting 4 6.1
2019-Aug-24 14:15 335 1 gusting 4 5.6
2019-Aug-24 14:00 330 1 gusting 4 5.6
2019-Aug-24 13:45 321 4 gusting 6 5.6
2019-Aug-24 13:30 333 3 gusting 6 5.6
2019-Aug-24 13:15 304 5 gusting 7 5.6
2019-Aug-24 13:00 331 5 gusting 9 5.6
2019-Aug-24 12:45 330 8 gusting 12 5.6
2019-Aug-24 12:30 309 8 gusting 13 5.6
2019-Aug-24 12:15 300 11 gusting 13 5.0
2019-Aug-24 12:00 328 6 gusting 10 5.0
2019-Aug-24 11:45 298 9 gusting 13 5.0
2019-Aug-24 11:30 309 10 gusting 15 4.4
2019-Aug-24 11:15 333 6 gusting 13 5.0
2019-Aug-24 11:00 275 9 gusting 13 5.0
2019-Aug-24 10:46 300 9 gusting 13 5.0
2019-Aug-24 10:32 311 6 gusting 12 5.0
2019-Aug-24 10:16 308 8 gusting 15 4.4
2019-Aug-24 10:02 293 12 gusting 17 4.4
2019-Aug-24 09:46 313 13 gusting 19 4.4
2019-Aug-24 09:31 309 15 gusting 19 4.4
2019-Aug-24 09:16 300 13 gusting 19 4.4
2019-Aug-24 09:01 309 14 gusting 21 4.4
2019-Aug-24 08:46 293 14 gusting 20 4.4
2019-Aug-24 08:31 303 13 gusting 18 4.4
2019-Aug-24 08:16 333 13 gusting 16 4.4
2019-Aug-24 08:01 309 11 gusting 15 3.9
2019-Aug-24 07:46 298 12 gusting 15 3.9
2019-Aug-24 07:31 295 9 gusting 13 3.9
2019-Aug-24 07:16 293 13 gusting 17 3.9
2019-Aug-24 07:01 307 12 gusting 17 3.9
2019-Aug-24 06:46 305 12 gusting 18 3.9
2019-Aug-24 06:30 302 13 gusting 19 3.9
2019-Aug-24 06:15 307 15 gusting 20 3.9
2019-Aug-24 06:00 304 15 gusting 20 3.9
2019-Aug-24 05:46 275 13 gusting 18 3.9
2019-Aug-24 05:31 296 10 gusting 19 3.9
2019-Aug-24 05:16 315 13 gusting 18 4.4
2019-Aug-24 05:01 301 16 gusting 21 3.9
2019-Aug-24 04:45 310 13 gusting 17 4.4
2019-Aug-24 04:31 307 12 gusting 16 4.4
2019-Aug-24 04:15 301 12 gusting 17 3.9
2019-Aug-24 04:00 302 13 gusting 18 4.4
2019-Aug-24 03:45 295 13 gusting 19 4.4
2019-Aug-24 03:31 293 13 gusting 19 4.4
2019-Aug-24 03:15 300 16 gusting 20 4.4
2019-Aug-24 03:01 303 15 gusting 19 4.4
2019-Aug-24 02:46 297 14 gusting 21 5.0
2019-Aug-24 02:30 307 13 gusting 21 5.0
2019-Aug-24 02:15 301 13 gusting 20 5.0
2019-Aug-24 02:00 304 14 gusting 20 5.0
2019-Aug-24 01:45 298 16 gusting 21 5.0
2019-Aug-24 01:30 300 13 gusting 21 5.0
2019-Aug-24 01:15 282 17 gusting 21 5.0
2019-Aug-24 01:00 307 13 gusting 20 5.0
2019-Aug-24 00:45 314 19 gusting 24 5.6
2019-Aug-24 00:30 321 12 gusting 21 5.6
2019-Aug-24 00:17 313 16 gusting 23 5.6
2019-Aug-24 00:01 309 19 gusting 23 5.6
2019-Aug-23 23:47 300 18 gusting 27 5.6
2019-Aug-23 23:31 312 21 gusting 26 5.6
2019-Aug-23 23:17 326 20 gusting 27 5.6
2019-Aug-23 23:01 290 20 gusting 27 5.6
2019-Aug-23 22:47 308 18 gusting 26 5.6
2019-Aug-23 22:31 308 21 gusting 28 5.6
2019-Aug-23 22:16 309 19 gusting 29 5.6
2019-Aug-23 22:01 288 19 gusting 30 5.6